Time;durP1;ratioP1;P1;durP2;ratioP2;P2;SDS_P1;SDS_P2;PMS_P1;PMS_P2;Temp;Humidity;BMP_temperature;BMP_pressure;BME280_temperature;BME280_humidity;BME280_pressure;Samples;Min_cycle;Max_cycle;Signal;HPM_P1;HPM_P2
2022/03/19 00:00:19;;;;;;;;;;;8.30;73.40;;;;;;5060156;28;20350;-78
2022/03/19 00:02:47;;;;;;;;;;;8.30;73.20;;;;;;5068667;28;20368;-76
2022/03/19 00:05:14;;;;;;;;;;;8.30;73.10;;;;;;5064635;28;19925;-77
2022/03/19 00:07:40;;;;;;;;;;;8.30;73.30;;;;;;5055648;28;19958;-77
2022/03/19 00:10:08;;;;;;;;;;;8.30;73.10;;;;;;5080377;28;19970;-77
2022/03/19 00:12:38;;;;;;;;;;;8.30;73.50;;;;;;5071571;28;19928;-77
2022/03/19 00:15:07;;;;;;;;;;;8.30;73.70;;;;;;5062122;28;19921;-76
2022/03/19 00:17:34;;;;;;;;;;;8.30;73.60;;;;;;5076964;28;19924;-76
2022/03/19 00:20:02;;;;;;;;;;;8.30;73.20;;;;;;5082990;28;19921;-75
2022/03/19 00:22:29;;;;;;;;;;;8.30;73.00;;;;;;5081715;28;19924;-77
2022/03/19 00:24:57;;;;;;;;;;;8.30;72.60;;;;;;5078405;28;19920;-78
2022/03/19 00:27:25;;;;;;;;;;;8.30;73.00;;;;;;5081886;28;19924;-75
2022/03/19 00:29:52;;;;;;;;;;;8.30;72.90;;;;;;5081783;28;19920;-76
2022/03/19 00:32:19;;;;;;;;;;;8.30;72.90;;;;;;5060802;28;20407;-77
2022/03/19 00:34:45;;;;;;;;;;;8.30;73.20;;;;;;5072633;28;19925;-76
2022/03/19 00:37:12;;;;;;;;;;;8.30;73.10;;;;;;5077986;28;19924;-77
2022/03/19 00:39:39;;;;;;;;;;;8.30;73.20;;;;;;5075066;28;19927;-74
2022/03/19 00:42:05;;;;;;;;;;;8.30;73.20;;;;;;5071719;28;19928;-77
2022/03/19 00:44:32;;;;;;;;;;;8.30;73.90;;;;;;5073201;28;19944;-77
2022/03/19 00:46:59;;;;;;;;;;;8.30;73.70;;;;;;5080643;28;20300;-77
2022/03/19 00:49:26;;;;;;;;;;;8.30;74.30;;;;;;5077757;28;19929;-76
2022/03/19 00:51:53;;;;;;;;;;;8.20;75.50;;;;;;5082942;28;19942;-76
2022/03/19 00:54:19;;;;;;;;;;;8.10;75.90;;;;;;5067566;28;20396;-77
2022/03/19 00:56:47;;;;;;;;;;;8.10;74.50;;;;;;5074506;28;19935;-77
2022/03/19 00:59:14;;;;;;;;;;;8.10;74.70;;;;;;5074951;28;19921;-75
2022/03/19 01:01:41;;;;;;;;;;;8.00;74.80;;;;;;5056831;28;19921;-75
2022/03/19 01:04:08;;;;;;;;;;;8.00;75.20;;;;;;5062449;28;20002;-77
2022/03/19 01:06:34;;;;;;;;;;;7.90;74.90;;;;;;5079232;28;20384;-76
2022/03/19 01:09:01;;;;;;;;;;;7.90;75.30;;;;;;5071731;28;19943;-75
2022/03/19 01:11:28;;;;;;;;;;;7.80;75.30;;;;;;5071847;28;19948;-76
2022/03/19 01:13:58;;;;;;;;;;;7.80;75.20;;;;;;5071264;28;19924;-76
2022/03/19 01:16:25;;;;;;;;;;;7.80;75.20;;;;;;5076906;28;19979;-75
2022/03/19 01:18:52;;;;;;;;;;;7.80;75.00;;;;;;5077761;28;19929;-77
2022/03/19 01:21:19;;;;;;;;;;;7.70;74.60;;;;;;5072360;28;19928;-77
2022/03/19 01:23:46;;;;;;;;;;;7.80;74.60;;;;;;5068919;28;19932;-77
2022/03/19 01:26:13;;;;;;;;;;;7.70;74.50;;;;;;5067213;28;19927;-77
2022/03/19 01:28:40;;;;;;;;;;;7.80;74.30;;;;;;5059087;28;19955;-77
2022/03/19 01:31:06;;;;;;;;;;;7.80;74.10;;;;;;5062820;28;19956;-77
2022/03/19 01:33:33;;;;;;;;;;;7.80;73.70;;;;;;5079868;28;19921;-77
2022/03/19 01:36:00;;;;;;;;;;;7.80;73.60;;;;;;5075691;28;19947;-77
2022/03/19 01:38:27;;;;;;;;;;;7.90;73.40;;;;;;5059333;28;20384;-77
2022/03/19 01:40:53;;;;;;;;;;;7.90;70.90;;;;;;5078643;28;19943;-77
2022/03/19 01:43:22;;;;;;;;;;;8.30;67.10;;;;;;5069196;28;20456;-77
2022/03/19 01:45:49;;;;;;;;;;;8.30;67.40;;;;;;5070443;28;19959;-77
2022/03/19 01:48:16;;;;;;;;;;;8.30;68.40;;;;;;5073895;28;19932;-77
2022/03/19 01:50:43;;;;;;;;;;;8.30;68.60;;;;;;5074816;28;19947;-76
2022/03/19 01:53:10;;;;;;;;;;;8.30;69.30;;;;;;5061711;28;19975;-75
2022/03/19 01:55:36;;;;;;;;;;;8.20;70.30;;;;;;5059273;28;20009;-76
2022/03/19 01:58:04;;;;;;;;;;;8.10;70.10;;;;;;5078154;28;19968;-76
2022/03/19 02:00:30;;;;;;;;;;;8.10;70.10;;;;;;5072156;28;20404;-77
2022/03/19 02:02:57;;;;;;;;;;;8.10;70.10;;;;;;5080932;28;20315;-77
2022/03/19 02:05:25;;;;;;;;;;;8.00;70.40;;;;;;5069480;28;19924;-76
2022/03/19 02:07:52;;;;;;;;;;;7.90;70.80;;;;;;5058249;28;19947;-77
2022/03/19 02:10:19;;;;;;;;;;;7.90;70.80;;;;;;5051152;28;19957;-77
2022/03/19 02:12:46;;;;;;;;;;;7.90;70.70;;;;;;5070093;28;19933;-78
2022/03/19 02:15:14;;;;;;;;;;;7.90;70.60;;;;;;5056919;28;19951;-76
2022/03/19 02:17:41;;;;;;;;;;;7.80;70.50;;;;;;5054913;28;20300;-77
2022/03/19 02:20:08;;;;;;;;;;;7.90;70.50;;;;;;5080708;28;20404;-76
2022/03/19 02:22:34;;;;;;;;;;;7.80;71.10;;;;;;5079405;28;19925;-75
2022/03/19 02:27:47;;;;;;;;;;;7.80;71.40;;;;;;5068051;28;19978;-77
2022/03/19 02:30:15;;;;;;;;;;;7.80;71.20;;;;;;5081306;28;20400;-77
2022/03/19 02:32:49;;;;;;;;;;;7.80;71.40;;;;;;5065689;28;19925;-75
2022/03/19 02:35:17;;;;;;;;;;;7.70;71.30;;;;;;5064198;28;19974;-77
2022/03/19 02:37:45;;;;;;;;;;;7.70;71.30;;;;;;5061646;28;19975;-76
2022/03/19 02:40:13;;;;;;;;;;;7.70;71.50;;;;;;5071962;28;20379;-76
2022/03/19 02:42:42;;;;;;;;;;;7.70;72.60;;;;;;5082934;28;19931;-77
2022/03/19 02:45:09;;;;;;;;;;;7.70;71.70;;;;;;5079118;28;19924;-76
2022/03/19 02:50:22;;;;;;;;;;;7.70;72.10;;;;;;5073604;28;20502;-77
2022/03/19 02:52:49;;;;;;;;;;;7.70;72.10;;;;;;5064844;28;19925;-75
2022/03/19 02:55:16;;;;;;;;;;;7.70;72.80;;;;;;5074557;28;19928;-77
2022/03/19 02:57:43;;;;;;;;;;;7.70;72.10;;;;;;5073478;28;19924;-75
2022/03/19 03:00:09;;;;;;;;;;;7.70;72.60;;;;;;5076601;28;19998;-77
2022/03/19 03:02:36;;;;;;;;;;;7.70;73.10;;;;;;5074558;28;19978;-76
2022/03/19 03:05:03;;;;;;;;;;;7.60;73.10;;;;;;5063539;28;19929;-76
2022/03/19 03:07:30;;;;;;;;;;;7.60;73.60;;;;;;5064828;28;19979;-76
2022/03/19 03:09:57;;;;;;;;;;;7.50;75.00;;;;;;5055263;28;19964;-77
2022/03/19 03:12:24;;;;;;;;;;;7.40;75.30;;;;;;5072350;28;19928;-74
2022/03/19 03:14:51;;;;;;;;;;;7.30;74.90;;;;;;5070071;28;19960;-77
2022/03/19 03:17:18;;;;;;;;;;;7.30;74.60;;;;;;5066368;28;19932;-76
2022/03/19 03:19:44;;;;;;;;;;;7.30;74.30;;;;;;5054340;28;20031;-75
2022/03/19 03:22:11;;;;;;;;;;;7.30;74.60;;;;;;5059891;28;19960;-76
2022/03/19 03:24:38;;;;;;;;;;;7.20;74.80;;;;;;5073207;28;19973;-75
2022/03/19 03:27:05;;;;;;;;;;;7.20;74.90;;;;;;5068416;28;19928;-76
2022/03/19 03:29:32;;;;;;;;;;;7.10;74.50;;;;;;5058638;28;19968;-75
2022/03/19 03:31:58;;;;;;;;;;;7.10;74.30;;;;;;5059120;28;19971;-77
2022/03/19 03:34:25;;;;;;;;;;;7.00;74.40;;;;;;5054759;28;19928;-77
2022/03/19 03:36:53;;;;;;;;;;;7.00;74.30;;;;;;5072101;28;19924;-77
2022/03/19 03:39:20;;;;;;;;;;;6.90;73.90;;;;;;5066173;28;19928;-75
2022/03/19 03:41:47;;;;;;;;;;;6.90;73.80;;;;;;5065206;28;19978;-77
2022/03/19 03:44:14;;;;;;;;;;;6.80;73.70;;;;;;5051688;28;20443;-78
2022/03/19 03:46:41;;;;;;;;;;;6.70;73.80;;;;;;5054633;28;19925;-75
2022/03/19 03:49:08;;;;;;;;;;;6.60;74.00;;;;;;5067679;28;19939;-78
2022/03/19 03:51:35;;;;;;;;;;;6.60;75.50;;;;;;5076054;28;20012;-76
2022/03/19 03:54:03;;;;;;;;;;;6.50;74.50;;;;;;5055133;28;19925;-76
2022/03/19 03:56:30;;;;;;;;;;;6.50;74.60;;;;;;5057188;28;19929;-77
2022/03/19 03:58:57;;;;;;;;;;;6.40;75.20;;;;;;5063507;28;19982;-75
2022/03/19 04:01:24;;;;;;;;;;;6.40;75.60;;;;;;5068879;28;20296;-76
2022/03/19 04:03:51;;;;;;;;;;;6.30;75.80;;;;;;5073052;28;19924;-77
2022/03/19 04:06:18;;;;;;;;;;;6.20;75.80;;;;;;5052909;28;19925;-77
2022/03/19 04:08:44;;;;;;;;;;;6.10;75.80;;;;;;5073083;28;20483;-77
2022/03/19 04:11:11;;;;;;;;;;;6.00;75.70;;;;;;5077270;28;19932;-77
2022/03/19 04:13:38;;;;;;;;;;;6.00;75.90;;;;;;5069778;28;19960;-77
2022/03/19 04:16:04;;;;;;;;;;;5.90;75.70;;;;;;5068068;28;19925;-77
2022/03/19 04:18:31;;;;;;;;;;;5.80;75.90;;;;;;5069518;28;19928;-77
2022/03/19 04:20:58;;;;;;;;;;;5.70;76.90;;;;;;5067332;28;19929;-77
2022/03/19 04:23:25;;;;;;;;;;;5.60;77.80;;;;;;5066755;28;20392;-76
2022/03/19 04:25:52;;;;;;;;;;;5.50;78.20;;;;;;5059049;28;19974;-75
2022/03/19 04:28:18;;;;;;;;;;;5.50;77.60;;;;;;5072471;28;19963;-77
2022/03/19 04:30:45;;;;;;;;;;;5.40;77.50;;;;;;5070603;28;19963;-76
2022/03/19 04:33:12;;;;;;;;;;;5.40;77.90;;;;;;5062023;28;19951;-77
2022/03/19 04:38:24;;;;;;;;;;;5.20;78.30;;;;;;5076397;28;19929;-74
2022/03/19 04:40:51;;;;;;;;;;;5.20;78.50;;;;;;5055905;28;19967;-75
2022/03/19 04:43:18;;;;;;;;;;;5.10;78.90;;;;;;5054753;28;20034;-77
2022/03/19 04:45:45;;;;;;;;;;;5.10;78.10;;;;;;5053503;28;19956;-76
2022/03/19 04:48:12;;;;;;;;;;;5.00;78.40;;;;;;5078016;28;20407;-77
2022/03/19 04:50:43;;;;;;;;;;;5.00;78.60;;;;;;5073067;28;19925;-76
2022/03/19 04:53:10;;;;;;;;;;;4.90;78.20;;;;;;5057493;28;19929;-76
2022/03/19 04:55:37;;;;;;;;;;;4.90;78.30;;;;;;5072844;28;19956;-75
2022/03/19 04:58:05;;;;;;;;;;;4.80;78.50;;;;;;5077094;28;19959;-77
2022/03/19 05:00:32;;;;;;;;;;;4.70;78.60;;;;;;5071016;28;20389;-76
2022/03/19 05:03:04;;;;;;;;;;;4.60;78.60;;;;;;5074194;28;19956;-76
2022/03/19 05:05:31;;;;;;;;;;;4.50;81.10;;;;;;5080455;28;19928;-77
2022/03/19 05:07:58;;;;;;;;;;;4.50;81.60;;;;;;5066646;28;19932;-74
2022/03/19 05:13:10;;;;;;;;;;;4.50;82.90;;;;;;5076914;28;20426;-77
2022/03/19 05:15:37;;;;;;;;;;;4.50;82.80;;;;;;5065970;28;19932;-76
2022/03/19 05:18:04;;;;;;;;;;;4.60;82.30;;;;;;5072250;28;20051;-76
2022/03/19 05:20:34;;;;;;;;;;;4.70;82.00;;;;;;5074522;28;19929;-77
2022/03/19 05:23:01;;;;;;;;;;;4.70;81.00;;;;;;5072719;28;20381;-76
2022/03/19 05:25:28;;;;;;;;;;;4.60;80.40;;;;;;5091206;28;19959;-75
2022/03/19 05:27:55;;;;;;;;;;;4.60;79.70;;;;;;5076080;28;20343;-76
2022/03/19 05:30:22;;;;;;;;;;;4.50;79.40;;;;;;5071755;28;19925;-77
2022/03/19 05:32:48;;;;;;;;;;;4.40;79.60;;;;;;5064904;28;19928;-77
2022/03/19 05:35:16;;;;;;;;;;;4.30;80.30;;;;;;5053840;28;20452;-76
2022/03/19 05:37:43;;;;;;;;;;;4.30;80.20;;;;;;5080167;28;19925;-75
2022/03/19 05:40:10;;;;;;;;;;;4.20;79.90;;;;;;5068532;28;19928;-76
2022/03/19 05:42:37;;;;;;;;;;;4.10;80.00;;;;;;5073475;28;20514;-77
2022/03/19 05:45:04;;;;;;;;;;;4.10;80.50;;;;;;5060679;28;19981;-77
2022/03/19 05:47:31;;;;;;;;;;;4.10;80.20;;;;;;5071833;28;19924;-76
2022/03/19 05:49:58;;;;;;;;;;;4.00;80.40;;;;;;5073464;28;19964;-76
2022/03/19 05:52:24;;;;;;;;;;;4.00;81.10;;;;;;5073853;28;19928;-76
2022/03/19 05:54:51;;;;;;;;;;;4.00;81.60;;;;;;5079484;28;19924;-75
2022/03/19 05:57:19;;;;;;;;;;;3.90;81.00;;;;;;5076639;28;19928;-77
2022/03/19 05:59:45;;;;;;;;;;;3.90;81.30;;;;;;5071730;28;19936;-77
2022/03/19 06:02:12;;;;;;;;;;;3.90;82.10;;;;;;5069949;28;19924;-77
2022/03/19 06:04:39;;;;;;;;;;;3.90;81.90;;;;;;5062298;28;19951;-77
2022/03/19 06:07:06;;;;;;;;;;;3.90;82.10;;;;;;5066845;28;20334;-77
2022/03/19 06:09:33;;;;;;;;;;;3.90;82.10;;;;;;5061382;28;19971;-77
2022/03/19 06:11:59;;;;;;;;;;;3.90;82.40;;;;;;5057005;28;20011;-76
2022/03/19 06:14:26;;;;;;;;;;;4.00;83.10;;;;;;5058740;28;19968;-76
2022/03/19 06:16:53;;;;;;;;;;;4.00;82.30;;;;;;5062937;28;20380;-74
2022/03/19 06:19:20;;;;;;;;;;;4.00;82.50;;;;;;5063324;28;20012;-75
2022/03/19 06:21:47;;;;;;;;;;;4.10;82.40;;;;;;5068192;28;19947;-76
2022/03/19 06:24:16;;;;;;;;;;;4.10;82.40;;;;;;5066740;28;19925;-77
2022/03/19 06:26:43;;;;;;;;;;;4.10;82.10;;;;;;5068571;28;19924;-75
2022/03/19 06:29:09;;;;;;;;;;;4.10;82.10;;;;;;5058860;28;20357;-76
2022/03/19 06:31:36;;;;;;;;;;;4.10;82.60;;;;;;5064870;28;20450;-75
2022/03/19 06:34:03;;;;;;;;;;;4.10;82.50;;;;;;5056801;28;19990;-77
2022/03/19 06:39:15;;;;;;;;;;;4.20;83.40;;;;;;5062855;28;19974;-77
2022/03/19 06:41:42;;;;;;;;;;;4.20;83.30;;;;;;5079846;28;19928;-77
2022/03/19 06:44:09;;;;;;;;;;;4.20;82.90;;;;;;5064734;28;19925;-77
2022/03/19 06:46:36;;;;;;;;;;;4.30;83.10;;;;;;5070239;28;19977;-76
2022/03/19 06:49:03;;;;;;;;;;;4.40;83.50;;;;;;5070277;28;20451;-77
2022/03/19 06:51:29;;;;;;;;;;;4.40;83.20;;;;;;5069885;28;20379;-77
2022/03/19 06:53:56;;;;;;;;;;;4.50;84.70;;;;;;5069957;28;19960;-77
2022/03/19 06:56:23;;;;;;;;;;;4.60;83.90;;;;;;5068048;28;19925;-76
2022/03/19 06:58:55;;;;;;;;;;;4.70;83.70;;;;;;5056516;28;20337;-77
2022/03/19 07:01:22;;;;;;;;;;;4.80;84.50;;;;;;5061954;28;19925;-76
2022/03/19 07:03:49;;;;;;;;;;;4.90;85.60;;;;;;5061348;28;19924;-77
2022/03/19 07:06:17;;;;;;;;;;;5.10;83.90;;;;;;5068831;28;20449;-77
2022/03/19 07:09:04;;;;;;;;;;;5.20;84.60;;;;;;5064780;28;19971;-77
2022/03/19 07:11:31;;;;;;;;;;;5.40;82.60;;;;;;5077869;28;20376;-77
2022/03/19 07:13:58;;;;;;;;;;;5.50;81.70;;;;;;5058319;28;19932;-77
2022/03/19 07:16:25;;;;;;;;;;;5.70;80.70;;;;;;5073364;28;19978;-77
2022/03/19 07:18:52;;;;;;;;;;;6.00;77.60;;;;;;5067450;28;19932;-77
2022/03/19 07:21:18;;;;;;;;;;;6.20;77.30;;;;;;5070910;28;20031;-77
2022/03/19 07:23:49;;;;;;;;;;;6.30;75.40;;;;;;5060643;28;19929;-77
2022/03/19 07:26:16;;;;;;;;;;;6.50;73.80;;;;;;5055120;28;19956;-74
2022/03/19 07:28:45;;;;;;;;;;;6.70;71.90;;;;;;5059384;28;20466;-74
2022/03/19 07:31:12;;;;;;;;;;;6.90;70.30;;;;;;5063910;28;19928;-78
2022/03/19 07:33:39;;;;;;;;;;;7.00;70.70;;;;;;5063230;28;19932;-78
2022/03/19 07:36:06;;;;;;;;;;;7.20;70.10;;;;;;5058281;28;20016;-75
2022/03/19 07:38:32;;;;;;;;;;;7.40;69.30;;;;;;5068412;28;19932;-79
2022/03/19 07:43:45;;;;;;;;;;;7.70;68.80;;;;;;5059625;28;19986;-78
2022/03/19 07:46:12;;;;;;;;;;;7.80;69.30;;;;;;5066765;28;20016;-78
2022/03/19 07:48:38;;;;;;;;;;;7.90;69.30;;;;;;5060118;28;20388;-75
2022/03/19 07:51:05;;;;;;;;;;;8.00;68.50;;;;;;5064275;28;19963;-76
2022/03/19 07:53:32;;;;;;;;;;;8.00;68.20;;;;;;5065455;28;20335;-75
2022/03/19 07:55:59;;;;;;;;;;;8.10;69.40;;;;;;5052996;28;19951;-77
2022/03/19 07:58:26;;;;;;;;;;;8.20;68.10;;;;;;5063107;28;19925;-75
2022/03/19 08:00:53;;;;;;;;;;;8.30;66.30;;;;;;5058710;28;19925;-78
2022/03/19 08:03:20;;;;;;;;;;;8.40;66.20;;;;;;5057220;28;19932;-76
2022/03/19 08:05:47;;;;;;;;;;;8.60;65.10;;;;;;5063665;28;20011;-78
2022/03/19 08:08:14;;;;;;;;;;;8.70;64.90;;;;;;5063275;28;19970;-76
2022/03/19 08:10:40;;;;;;;;;;;8.80;65.60;;;;;;5070283;28;19924;-75
2022/03/19 08:13:08;;;;;;;;;;;9.00;64.30;;;;;;5071210;28;19975;-77
2022/03/19 08:15:37;;;;;;;;;;;9.20;62.30;;;;;;5069357;28;19974;-75
2022/03/19 08:18:05;;;;;;;;;;;9.30;62.20;;;;;;5061821;28;19932;-76
2022/03/19 08:20:32;;;;;;;;;;;9.50;60.80;;;;;;5058313;28;20376;-76
2022/03/19 08:22:59;;;;;;;;;;;9.70;60.10;;;;;;5051701;28;19964;-79
2022/03/19 08:25:25;;;;;;;;;;;9.80;56.70;;;;;;5065619;28;19950;-76
2022/03/19 08:27:54;;;;;;;;;;;9.90;55.80;;;;;;5059817;28;19947;-76
2022/03/19 08:30:21;;;;;;;;;;;10.10;55.70;;;;;;5063706;28;19932;-79
2022/03/19 08:32:47;;;;;;;;;;;10.20;55.40;;;;;;5062471;28;19929;-78
2022/03/19 08:35:14;;;;;;;;;;;10.40;54.70;;;;;;5063711;28;19970;-77
2022/03/19 08:37:45;;;;;;;;;;;10.50;53.50;;;;;;5064210;28;19939;-76
2022/03/19 08:40:18;;;;;;;;;;;10.60;53.60;;;;;;5058253;28;19932;-77
2022/03/19 08:42:51;;;;;;;;;;;10.70;53.00;;;;;;5060722;28;19933;-76
2022/03/19 08:45:20;;;;;;;;;;;10.70;53.00;;;;;;5064324;28;19967;-76
2022/03/19 08:47:47;;;;;;;;;;;10.70;51.80;;;;;;5059544;28;19925;-78
2022/03/19 08:50:14;;;;;;;;;;;10.80;52.20;;;;;;5061945;28;19975;-75
2022/03/19 08:52:41;;;;;;;;;;;11.00;51.30;;;;;;5057046;28;20435;-75
2022/03/19 08:55:08;;;;;;;;;;;11.10;49.30;;;;;;5055239;28;20389;-75
2022/03/19 08:57:35;;;;;;;;;;;11.20;50.20;;;;;;5059574;28;19928;-78
2022/03/19 09:00:02;;;;;;;;;;;11.00;47.50;;;;;;5059678;28;19928;-78
2022/03/19 09:02:42;;;;;;;;;;;11.20;49.50;;;;;;5061288;28;19956;-76
2022/03/19 09:05:10;;;;;;;;;;;11.20;48.50;;;;;;5061446;28;19931;-78
2022/03/19 09:07:37;;;;;;;;;;;11.40;49.30;;;;;;5061573;28;19951;-78
2022/03/19 09:10:04;;;;;;;;;;;11.50;48.70;;;;;;5051681;28;19928;-75
2022/03/19 09:12:34;;;;;;;;;;;11.50;47.10;;;;;;5066004;28;19925;-78
2022/03/19 09:15:00;;;;;;;;;;;11.60;48.20;;;;;;5060478;28;19936;-78
2022/03/19 09:17:27;;;;;;;;;;;11.70;47.70;;;;;;5067638;28;19956;-76
2022/03/19 09:19:54;;;;;;;;;;;11.70;46.80;;;;;;5070496;28;19970;-76
2022/03/19 09:22:21;;;;;;;;;;;11.80;46.90;;;;;;5070219;28;19982;-78
2022/03/19 09:24:48;;;;;;;;;;;11.90;47.50;;;;;;5066755;28;19925;-78
2022/03/19 09:27:15;;;;;;;;;;;12.10;47.50;;;;;;5062456;28;19982;-76
2022/03/19 09:29:42;;;;;;;;;;;12.20;47.50;;;;;;5065239;28;19925;-76
2022/03/19 09:32:12;;;;;;;;;;;12.30;47.30;;;;;;5051934;28;19925;-79
2022/03/19 09:34:40;;;;;;;;;;;12.50;47.50;;;;;;5059936;28;19975;-77
2022/03/19 09:37:07;;;;;;;;;;;12.70;48.80;;;;;;5061160;28;19932;-75
2022/03/19 09:39:34;;;;;;;;;;;12.70;46.20;;;;;;5064670;28;19924;-76
2022/03/19 09:42:02;;;;;;;;;;;12.70;46.20;;;;;;5058110;28;19963;-75
2022/03/19 09:44:29;;;;;;;;;;;12.50;45.80;;;;;;5073650;28;19982;-76
2022/03/19 09:46:56;;;;;;;;;;;12.30;45.30;;;;;;5066308;28;19928;-75
2022/03/19 09:49:23;;;;;;;;;;;12.40;45.70;;;;;;5066271;28;19931;-77
2022/03/19 09:51:53;;;;;;;;;;;12.40;46.70;;;;;;5053685;28;19928;-75
2022/03/19 09:54:24;;;;;;;;;;;12.70;46.40;;;;;;5064854;28;20065;-75
2022/03/19 09:56:51;;;;;;;;;;;12.70;45.30;;;;;;5068351;28;19978;-75
2022/03/19 09:59:18;;;;;;;;;;;12.90;46.00;;;;;;5071503;28;19931;-78
2022/03/19 10:01:45;;;;;;;;;;;12.90;46.20;;;;;;5070583;28;19936;-79
2022/03/19 10:04:15;;;;;;;;;;;13.10;44.80;;;;;;5059467;28;19928;-77
2022/03/19 10:09:41;;;;;;;;;;;13.00;44.90;;;;;;5056887;28;19929;-78
2022/03/19 10:12:16;;;;;;;;;;;12.90;45.30;;;;;;5052317;28;19958;-76
2022/03/19 10:14:51;;;;;;;;;;;13.00;45.10;;;;;;5052437;28;20438;-75
2022/03/19 10:17:34;;;;;;;;;;;13.10;45.20;;;;;;5066989;28;19928;-78
2022/03/19 10:20:01;;;;;;;;;;;13.30;44.60;;;;;;5065861;28;19925;-75
2022/03/19 10:22:29;;;;;;;;;;;13.30;45.30;;;;;;5067344;28;20308;-78
2022/03/19 10:24:57;;;;;;;;;;;13.40;45.00;;;;;;5068641;28;19947;-78
2022/03/19 10:27:24;;;;;;;;;;;13.60;44.70;;;;;;5071787;28;19967;-77
2022/03/19 10:30:00;;;;;;;;;;;13.60;43.60;;;;;;5072820;28;19928;-78
2022/03/19 10:32:28;;;;;;;;;;;13.70;44.90;;;;;;5057449;28;20300;-78
2022/03/19 10:34:55;;;;;;;;;;;13.80;44.40;;;;;;5074327;28;19928;-78
2022/03/19 10:37:39;;;;;;;;;;;13.70;45.00;;;;;;5062521;28;19925;-78
2022/03/19 10:40:08;;;;;;;;;;;13.80;43.30;;;;;;5061496;28;20373;-76
2022/03/19 10:42:36;;;;;;;;;;;13.80;43.70;;;;;;5079024;28;19925;-77
2022/03/19 10:45:02;;;;;;;;;;;13.40;43.30;;;;;;5055275;28;19925;-78
2022/03/19 10:47:37;;;;;;;;;;;13.50;43.80;;;;;;5057707;28;19928;-78
2022/03/19 10:50:04;;;;;;;;;;;13.70;43.50;;;;;;5059381;28;19924;-75
2022/03/19 10:52:33;;;;;;;;;;;13.60;44.20;;;;;;5055324;28;19978;-77
2022/03/19 10:55:03;;;;;;;;;;;13.70;44.10;;;;;;5052803;28;19982;-76
2022/03/19 10:57:30;;;;;;;;;;;14.00;44.30;;;;;;5050769;28;19935;-77
2022/03/19 10:59:57;;;;;;;;;;;14.10;44.00;;;;;;5054526;28;19925;-76
2022/03/19 11:02:26;;;;;;;;;;;14.00;43.20;;;;;;5057789;28;19967;-77
2022/03/19 11:04:53;;;;;;;;;;;14.00;42.60;;;;;;5056972;28;20407;-78
2022/03/19 11:07:21;;;;;;;;;;;14.10;43.00;;;;;;5059430;28;19968;-79
2022/03/19 11:09:51;;;;;;;;;;;14.30;43.40;;;;;;5050063;28;19970;-77
2022/03/19 11:12:20;;;;;;;;;;;14.40;43.70;;;;;;5051026;28;19952;-78
2022/03/19 11:14:49;;;;;;;;;;;14.40;42.10;;;;;;5065284;28;19983;-79
2022/03/19 11:17:24;;;;;;;;;;;14.40;42.10;;;;;;5059338;28;19928;-77
2022/03/19 11:19:52;;;;;;;;;;;14.50;42.40;;;;;;5063738;28;19935;-77
2022/03/19 11:22:19;;;;;;;;;;;14.50;42.40;;;;;;5055509;28;19925;-78
2022/03/19 11:24:53;;;;;;;;;;;14.60;42.50;;;;;;5059551;28;20473;-75
2022/03/19 11:27:21;;;;;;;;;;;14.70;41.70;;;;;;5063102;28;19933;-78
2022/03/19 11:29:48;;;;;;;;;;;14.70;41.60;;;;;;5055555;28;20425;-75
2022/03/19 11:32:22;;;;;;;;;;;14.40;40.80;;;;;;5061768;28;19928;-78
2022/03/19 11:34:50;;;;;;;;;;;14.30;42.20;;;;;;5057241;28;19974;-78
2022/03/19 11:37:17;;;;;;;;;;;14.40;41.70;;;;;;5063111;28;20121;-76
2022/03/19 11:40:04;;;;;;;;;;;14.50;42.00;;;;;;5056400;28;20400;-78
2022/03/19 11:42:31;;;;;;;;;;;14.70;42.20;;;;;;5052447;28;19940;-78
2022/03/19 11:45:12;;;;;;;;;;;14.90;42.50;;;;;;5056459;28;19973;-78
2022/03/19 11:47:39;;;;;;;;;;;15.00;41.10;;;;;;5071163;28;20316;-78
2022/03/19 11:50:26;;;;;;;;;;;15.10;40.50;;;;;;5061361;28;19936;-79
2022/03/19 11:52:52;;;;;;;;;;;15.10;40.10;;;;;;5055016;28;20026;-78
2022/03/19 11:55:22;;;;;;;;;;;15.00;39.80;;;;;;5058712;28;20020;-75
2022/03/19 11:57:55;;;;;;;;;;;15.00;41.10;;;;;;5058662;28;19932;-77
2022/03/19 12:00:23;;;;;;;;;;;15.10;41.20;;;;;;5061136;28;20300;-76
2022/03/19 12:02:59;;;;;;;;;;;15.10;42.20;;;;;;5063813;28;19978;-77
2022/03/19 12:05:26;;;;;;;;;;;15.20;40.30;;;;;;5064318;28;19931;-78
2022/03/19 12:07:54;;;;;;;;;;;15.10;40.30;;;;;;5059998;28;19951;-79
2022/03/19 12:10:24;;;;;;;;;;;15.20;42.60;;;;;;5060451;28;19935;-75
2022/03/19 12:12:51;;;;;;;;;;;15.10;39.50;;;;;;5061045;28;19925;-78
2022/03/19 12:15:33;;;;;;;;;;;15.30;40.80;;;;;;5060317;28;19932;-79
2022/03/19 12:18:18;;;;;;;;;;;15.30;40.70;;;;;;5061807;28;19929;-76
2022/03/19 12:20:45;;;;;;;;;;;15.30;40.30;;;;;;5078037;28;19954;-77
2022/03/19 12:23:12;;;;;;;;;;;15.30;39.90;;;;;;5075849;28;20323;-76
2022/03/19 12:25:41;;;;;;;;;;;15.40;40.70;;;;;;5072812;28;19924;-77
2022/03/19 12:28:14;;;;;;;;;;;15.60;40.30;;;;;;5068059;28;19925;-78
2022/03/19 12:30:41;;;;;;;;;;;15.60;39.50;;;;;;5060105;28;19929;-79
2022/03/19 12:33:08;;;;;;;;;;;15.80;40.20;;;;;;5063704;28;19924;-76
2022/03/19 12:35:39;;;;;;;;;;;16.00;41.50;;;;;;5062829;28;20338;-78
2022/03/19 12:38:06;;;;;;;;;;;16.10;41.00;;;;;;5066894;28;19986;-79
2022/03/19 12:43:34;;;;;;;;;;;16.00;38.60;;;;;;5046354;28;19925;-75
2022/03/19 12:46:01;;;;;;;;;;;15.90;39.80;;;;;;5070893;28;19928;-76
2022/03/19 12:48:31;;;;;;;;;;;16.10;40.40;;;;;;5059628;28;20377;-78
2022/03/19 12:50:58;;;;;;;;;;;16.30;39.30;;;;;;5073237;28;19951;-79
2022/03/19 12:53:32;;;;;;;;;;;16.40;38.60;;;;;;5060560;28;20006;-79
2022/03/19 12:56:16;;;;;;;;;;;16.20;37.90;;;;;;5059954;28;19970;-76
2022/03/19 12:58:44;;;;;;;;;;;16.30;38.60;;;;;;5071998;28;20446;-78
2022/03/19 13:01:14;;;;;;;;;;;16.60;39.30;;;;;;5071462;28;20456;-78
2022/03/19 13:03:41;;;;;;;;;;;16.80;37.90;;;;;;5063261;28;20305;-78
2022/03/19 13:06:09;;;;;;;;;;;16.80;38.00;;;;;;5069508;28;20395;-79
2022/03/19 13:08:46;;;;;;;;;;;17.00;38.90;;;;;;5072353;28;20434;-76
2022/03/19 13:11:13;;;;;;;;;;;17.10;37.90;;;;;;5064535;28;19971;-76
2022/03/19 13:13:41;;;;;;;;;;;17.10;37.00;;;;;;5060148;28;20339;-78
2022/03/19 13:16:08;;;;;;;;;;;17.00;37.70;;;;;;5071585;28;19925;-77
2022/03/19 13:18:36;;;;;;;;;;;17.00;37.70;;;;;;5072020;28;19928;-75
2022/03/19 13:21:07;;;;;;;;;;;16.80;37.60;;;;;;5065243;28;19928;-76
2022/03/19 13:23:35;;;;;;;;;;;17.00;38.00;;;;;;5055633;28;19925;-75
2022/03/19 13:26:03;;;;;;;;;;;17.40;38.50;;;;;;5060193;28;19925;-76
2022/03/19 13:28:31;;;;;;;;;;;17.30;36.10;;;;;;5051590;28;19929;-75
2022/03/19 13:30:58;;;;;;;;;;;17.20;36.80;;;;;;5052484;28;20389;-78
2022/03/19 13:33:27;;;;;;;;;;;17.10;36.70;;;;;;5051597;28;19936;-75
2022/03/19 13:35:54;;;;;;;;;;;16.80;37.70;;;;;;5058041;28;20000;-78
2022/03/19 13:38:22;;;;;;;;;;;16.70;38.00;;;;;;5055806;28;19928;-78
2022/03/19 13:40:53;;;;;;;;;;;16.60;38.20;;;;;;5054995;28;19924;-78
2022/03/19 13:43:20;;;;;;;;;;;16.60;38.00;;;;;;5056847;28;20250;-77
2022/03/19 13:45:47;;;;;;;;;;;16.40;37.60;;;;;;5048111;28;19971;-78
2022/03/19 13:48:14;;;;;;;;;;;16.40;39.20;;;;;;5064568;28;19960;-76
2022/03/19 13:50:55;;;;;;;;;;;16.50;39.70;;;;;;5063635;28;20533;-78
2022/03/19 13:53:22;;;;;;;;;;;16.20;37.40;;;;;;5071029;28;20408;-79
2022/03/19 13:55:49;;;;;;;;;;;16.00;37.70;;;;;;5057494;28;19933;-76
2022/03/19 13:58:17;;;;;;;;;;;16.00;38.70;;;;;;5074645;28;19925;-74
2022/03/19 14:00:46;;;;;;;;;;;16.10;38.30;;;;;;5063469;28;19975;-76
2022/03/19 14:03:15;;;;;;;;;;;15.80;38.10;;;;;;5064490;28;20303;-75
2022/03/19 14:05:51;;;;;;;;;;;15.90;38.60;;;;;;5063638;28;20407;-75
2022/03/19 14:08:19;;;;;;;;;;;16.20;37.40;;;;;;5064734;28;19932;-77
2022/03/19 14:10:56;;;;;;;;;;;16.30;37.40;;;;;;5061540;28;20269;-78
2022/03/19 14:13:38;;;;;;;;;;;16.30;37.20;;;;;;5055437;28;19925;-78
2022/03/19 14:16:09;;;;;;;;;;;16.60;37.10;;;;;;5067660;28;19932;-75
2022/03/19 14:18:36;;;;;;;;;;;16.90;36.40;;;;;;5072855;28;20401;-77
2022/03/19 14:21:03;;;;;;;;;;;17.10;36.30;;;;;;5059089;28;19929;-75
2022/03/19 14:23:31;;;;;;;;;;;17.10;36.40;;;;;;5063503;28;20293;-78
2022/03/19 14:25:57;;;;;;;;;;;17.00;35.80;;;;;;5060365;28;19924;-78
2022/03/19 14:28:25;;;;;;;;;;;16.90;35.40;;;;;;5061384;28;19924;-78
2022/03/19 14:30:52;;;;;;;;;;;16.70;35.50;;;;;;5063916;28;20353;-75
2022/03/19 14:33:23;;;;;;;;;;;16.50;36.60;;;;;;5060400;28;20547;-78
2022/03/19 14:35:54;;;;;;;;;;;16.60;36.60;;;;;;5060367;28;19928;-78
2022/03/19 14:38:22;;;;;;;;;;;16.60;36.40;;;;;;5058403;28;19928;-75
2022/03/19 14:40:49;;;;;;;;;;;16.50;36.00;;;;;;5064926;28;19924;-78
2022/03/19 14:43:16;;;;;;;;;;;16.20;36.60;;;;;;5065718;28;19974;-75
2022/03/19 14:45:44;;;;;;;;;;;16.10;36.60;;;;;;5063476;28;19931;-75
2022/03/19 14:48:11;;;;;;;;;;;16.10;37.10;;;;;;5078211;28;19943;-78
2022/03/19 14:50:43;;;;;;;;;;;16.30;37.80;;;;;;5070774;28;19925;-79